Terminal Aerodrome Forecast
Issued by NWS

Home | Current Version | Previous Version | Text Only | Print | Product List | Glossary Off
Versions: 1 2 3 4 5 6 7 8 9 10 11 12 13 14 15 16 17 18

000
FTUS43 KPAH 010810 AAA
TAFCGI
TAF AMD
KCGI 010810Z 0108/0206 00000KT P6SM SKC
     FM011000 00000KT 3SM BR SKC
      TEMPO 0110/0113 1SM BR
     FM011400 19004KT P6SM SCT040
     FM020100 00000KT P6SM SKC=

USA.gov is the U.S. government's official web portal to all federal, state and local government web resources and services.